sensor_id;sensor_type;location;lat;lon;timestamp;pressure;altitude;pressure_sealevel;temperature;humidity
49541;BME280;35432;43.566;1.398;2023-02-17T00:01:22;101500.50;;;6.05;68.41
49541;BME280;35432;43.566;1.398;2023-02-17T00:03:49;101501.31;;;6.03;68.43
49541;BME280;35432;43.566;1.398;2023-02-17T00:06:16;101500.38;;;6.01;68.23
49541;BME280;35432;43.566;1.398;2023-02-17T00:08:42;101503.81;;;6.00;68.97
49541;BME280;35432;43.566;1.398;2023-02-17T00:11:09;101504.66;;;5.99;68.71
49541;BME280;35432;43.566;1.398;2023-02-17T00:13:34;101505.47;;;5.98;68.90
49541;BME280;35432;43.566;1.398;2023-02-17T00:16:05;101507.94;;;5.94;68.29
49541;BME280;35432;43.566;1.398;2023-02-17T00:18:31;101507.00;;;5.92;68.26
49541;BME280;35432;43.566;1.398;2023-02-17T00:20:56;101505.16;;;5.89;69.01
49541;BME280;35432;43.566;1.398;2023-02-17T00:23:21;101515.50;;;5.86;68.32
49541;BME280;35432;43.566;1.398;2023-02-17T00:25:47;101515.34;;;5.81;68.45
49541;BME280;35432;43.566;1.398;2023-02-17T00:28:12;101515.28;;;5.80;68.53
49541;BME280;35432;43.566;1.398;2023-02-17T00:30:38;101512.66;;;5.80;68.12
49541;BME280;35432;43.566;1.398;2023-02-17T00:33:04;101515.28;;;5.80;68.26
49541;BME280;35432;43.566;1.398;2023-02-17T00:35:29;101510.88;;;5.79;68.91
49541;BME280;35432;43.566;1.398;2023-02-17T00:37:55;101516.13;;;5.79;68.68
49541;BME280;35432;43.566;1.398;2023-02-17T00:40:20;101515.22;;;5.78;68.43
49541;BME280;35432;43.566;1.398;2023-02-17T00:42:46;101513.34;;;5.74;69.00
49541;BME280;35432;43.566;1.398;2023-02-17T00:45:13;101518.44;;;5.71;68.34
49541;BME280;35432;43.566;1.398;2023-02-17T00:47:38;101521.78;;;5.67;68.84
49541;BME280;35432;43.566;1.398;2023-02-17T00:50:04;101518.16;;;5.63;68.12
49541;BME280;35432;43.566;1.398;2023-02-17T00:52:30;101516.28;;;5.59;68.15
49541;BME280;35432;43.566;1.398;2023-02-17T00:54:55;101510.84;;;5.53;68.17
49541;BME280;35432;43.566;1.398;2023-02-17T00:57:21;101513.22;;;5.46;68.76
49541;BME280;35432;43.566;1.398;2023-02-17T00:59:46;101511.31;;;5.42;68.79
49541;BME280;35432;43.566;1.398;2023-02-17T01:02:12;101513.78;;;5.38;68.76
49541;BME280;35432;43.566;1.398;2023-02-17T01:04:37;101512.75;;;5.34;68.67
49541;BME280;35432;43.566;1.398;2023-02-17T01:07:02;101509.09;;;5.29;68.99
49541;BME280;35432;43.566;1.398;2023-02-17T01:09:28;101509.81;;;5.25;69.02
49541;BME280;35432;43.566;1.398;2023-02-17T01:11:53;101510.53;;;5.21;68.58
49541;BME280;35432;43.566;1.398;2023-02-17T01:14:19;101513.84;;;5.16;68.93
49541;BME280;35432;43.566;1.398;2023-02-17T01:16:46;101522.38;;;5.12;69.29
49541;BME280;35432;43.566;1.398;2023-02-17T01:19:16;101520.50;;;5.08;68.81
49541;BME280;35432;43.566;1.398;2023-02-17T01:21:42;101518.59;;;5.04;69.05
49541;BME280;35432;43.566;1.398;2023-02-17T01:24:08;101521.94;;;5.00;69.04
49541;BME280;35432;43.566;1.398;2023-02-17T01:26:34;101520.03;;;4.96;68.52
49541;BME280;35432;43.566;1.398;2023-02-17T01:29:01;101514.66;;;4.93;68.60
49541;BME280;35432;43.566;1.398;2023-02-17T01:31:27;101512.75;;;4.88;68.84
49541;BME280;35432;43.566;1.398;2023-02-17T01:33:55;101506.56;;;4.85;69.15
49541;BME280;35432;43.566;1.398;2023-02-17T01:36:21;101515.97;;;4.81;69.06
49541;BME280;35432;43.566;1.398;2023-02-17T01:38:47;101512.41;;;4.79;69.03
49541;BME280;35432;43.566;1.398;2023-02-17T01:41:14;101513.16;;;4.77;69.24
49541;BME280;35432;43.566;1.398;2023-02-17T01:43:42;101509.69;;;4.76;69.15
49541;BME280;35432;43.566;1.398;2023-02-17T01:46:07;101505.22;;;4.73;68.73
49541;BME280;35432;43.566;1.398;2023-02-17T01:48:44;101508.63;;;4.71;68.91
49541;BME280;35432;43.566;1.398;2023-02-17T01:51:18;101507.72;;;4.70;68.92
49541;BME280;35432;43.566;1.398;2023-02-17T01:53:50;101510.25;;;4.69;69.36
49541;BME280;35432;43.566;1.398;2023-02-17T01:56:17;101509.38;;;4.68;68.81
49541;BME280;35432;43.566;1.398;2023-02-17T01:58:54;101511.91;;;4.67;69.13
49541;BME280;35432;43.566;1.398;2023-02-17T02:01:21;101518.88;;;4.66;69.20
49541;BME280;35432;43.566;1.398;2023-02-17T02:03:48;101510.09;;;4.64;69.61
49541;BME280;35432;43.566;1.398;2023-02-17T02:06:21;101504.78;;;4.63;69.17
49541;BME280;35432;43.566;1.398;2023-02-17T02:09:15;101516.00;;;4.60;68.65
49541;BME280;35432;43.566;1.398;2023-02-17T02:11:43;101515.09;;;4.59;69.42
49541;BME280;35432;43.566;1.398;2023-02-17T02:14:09;101513.31;;;4.58;69.34
49541;BME280;35432;43.566;1.398;2023-02-17T02:16:47;101521.97;;;4.57;68.75
49541;BME280;35432;43.566;1.398;2023-02-17T02:34:37;101512.88;;;4.48;69.12
49541;BME280;35432;43.566;1.398;2023-02-17T02:37:15;101513.72;;;4.47;69.14
49541;BME280;35432;43.566;1.398;2023-02-17T02:39:47;101512.81;;;4.46;69.26
49541;BME280;35432;43.566;1.398;2023-02-17T02:42:19;101518.84;;;4.45;69.06
49541;BME280;35432;43.566;1.398;2023-02-17T02:44:46;101515.41;;;4.46;69.78
49541;BME280;35432;43.566;1.398;2023-02-17T02:50:04;101514.66;;;4.49;69.29
49541;BME280;35432;43.566;1.398;2023-02-17T02:53:17;101514.63;;;4.47;69.07
49541;BME280;35432;43.566;1.398;2023-02-17T02:56:11;101500.75;;;4.48;68.91
49541;BME280;35432;43.566;1.398;2023-02-17T03:04:20;101499.09;;;4.50;69.48
49541;BME280;35432;43.566;1.398;2023-02-17T03:06:58;101502.53;;;4.49;69.17
49541;BME280;35432;43.566;1.398;2023-02-17T03:09:26;101503.41;;;4.50;69.60
49541;BME280;35432;43.566;1.398;2023-02-17T03:11:54;101498.13;;;4.48;69.49
49541;BME280;35432;43.566;1.398;2023-02-17T03:14:21;101496.38;;;4.47;69.66
49541;BME280;35432;43.566;1.398;2023-02-17T03:16:47;101491.94;;;4.46;69.58
49541;BME280;35432;43.566;1.398;2023-02-17T03:19:13;101492.84;;;4.47;69.79
49541;BME280;35432;43.566;1.398;2023-02-17T03:21:52;101496.28;;;4.45;68.71
49541;BME280;35432;43.566;1.398;2023-02-17T03:24:21;101497.16;;;4.46;69.12
49541;BME280;35432;43.566;1.398;2023-02-17T03:26:46;101498.91;;;4.45;69.58
49541;BME280;35432;43.566;1.398;2023-02-17T03:29:12;101497.16;;;4.46;69.30
49541;BME280;35432;43.566;1.398;2023-02-17T03:31:38;101496.28;;;4.45;69.42
49541;BME280;35432;43.566;1.398;2023-02-17T03:34:04;101504.94;;;4.44;69.49
49541;BME280;35432;43.566;1.398;2023-02-17T03:36:29;101498.81;;;4.44;69.88
49541;BME280;35432;43.566;1.398;2023-02-17T03:38:55;101507.47;;;4.43;69.71
49541;BME280;35432;43.566;1.398;2023-02-17T03:41:21;101506.50;;;4.41;69.47
49541;BME280;35432;43.566;1.398;2023-02-17T03:43:46;101502.97;;;4.39;69.20
49541;BME280;35432;43.566;1.398;2023-02-17T03:46:14;101508.88;;;4.35;69.38
49541;BME280;35432;43.566;1.398;2023-02-17T03:48:39;101507.09;;;4.34;69.38
49541;BME280;35432;43.566;1.398;2023-02-17T03:51:11;101510.53;;;4.33;69.18
49541;BME280;35432;43.566;1.398;2023-02-17T03:53:38;101510.53;;;4.33;69.53
49541;BME280;35432;43.566;1.398;2023-02-17T03:56:04;101509.63;;;4.32;69.19
49541;BME280;35432;43.566;1.398;2023-02-17T03:58:29;101509.59;;;4.30;69.51
49541;BME280;35432;43.566;1.398;2023-02-17T04:00:54;101498.19;;;4.28;69.47
49541;BME280;35432;43.566;1.398;2023-02-17T04:03:20;101499.84;;;4.26;69.62
49541;BME280;35432;43.566;1.398;2023-02-17T04:05:45;101502.38;;;4.25;69.33
49541;BME280;35432;43.566;1.398;2023-02-17T04:08:11;101518.03;;;4.25;69.19
49541;BME280;35432;43.566;1.398;2023-02-17T04:10:36;101503.16;;;4.22;69.37
49541;BME280;35432;43.566;1.398;2023-02-17T04:13:01;101515.31;;;4.22;69.48
49541;BME280;35432;43.566;1.398;2023-02-17T04:15:27;101513.41;;;4.18;69.39
49541;BME280;35432;43.566;1.398;2023-02-17T04:17:54;101516.75;;;4.15;69.43
49541;BME280;35432;43.566;1.398;2023-02-17T04:20:19;101519.19;;;4.10;69.13
49541;BME280;35432;43.566;1.398;2023-02-17T04:22:45;101519.09;;;4.09;69.46
49541;BME280;35432;43.566;1.398;2023-02-17T04:25:10;101514.72;;;4.08;69.84
49541;BME280;35432;43.566;1.398;2023-02-17T04:27:36;101512.94;;;4.07;68.97
49541;BME280;35432;43.566;1.398;2023-02-17T04:30:01;101518.19;;;4.08;69.62
49541;BME280;35432;43.566;1.398;2023-02-17T04:32:26;101513.81;;;4.07;69.60
49541;BME280;35432;43.566;1.398;2023-02-17T04:34:52;101513.81;;;4.07;69.29
49541;BME280;35432;43.566;1.398;2023-02-17T04:37:17;101523.38;;;4.07;69.58
49541;BME280;35432;43.566;1.398;2023-02-17T04:39:43;101524.09;;;4.04;69.28
49541;BME280;35432;43.566;1.398;2023-02-17T04:42:08;101525.84;;;4.04;69.58
49541;BME280;35432;43.566;1.398;2023-02-17T04:44:33;101524.88;;;4.01;69.61
49541;BME280;35432;43.566;1.398;2023-02-17T04:46:59;101520.41;;;3.99;69.59
49541;BME280;35432;43.566;1.398;2023-02-17T04:49:24;101519.53;;;3.98;69.46
49541;BME280;35432;43.566;1.398;2023-02-17T04:51:49;101522.94;;;3.97;70.07
49541;BME280;35432;43.566;1.398;2023-02-17T04:54:15;101522.94;;;3.97;69.65
49541;BME280;35432;43.566;1.398;2023-02-17T04:56:40;101525.56;;;3.97;69.62
49541;BME280;35432;43.566;1.398;2023-02-17T04:59:06;101530.72;;;3.96;69.51
49541;BME280;35432;43.566;1.398;2023-02-17T05:01:31;101521.84;;;3.92;69.71
49541;BME280;35432;43.566;1.398;2023-02-17T05:03:56;101544.44;;;3.92;69.70
49541;BME280;35432;43.566;1.398;2023-02-17T05:06:22;101535.66;;;3.90;69.81
49541;BME280;35432;43.566;1.398;2023-02-17T05:08:47;101539.97;;;3.89;69.81
49541;BME280;35432;43.566;1.398;2023-02-17T05:11:14;101539.84;;;3.86;69.57
49541;BME280;35432;43.566;1.398;2023-02-17T05:13:40;101531.06;;;3.84;69.82
49541;BME280;35432;43.566;1.398;2023-02-17T05:16:06;101539.72;;;3.83;69.31
49541;BME280;35432;43.566;1.398;2023-02-17T05:18:31;101544.09;;;3.84;69.72
49541;BME280;35432;43.566;1.398;2023-02-17T05:20:57;101543.16;;;3.82;69.84
49541;BME280;35432;43.566;1.398;2023-02-17T05:23:22;101538.75;;;3.81;69.39
49541;BME280;35432;43.566;1.398;2023-02-17T05:25:48;101535.31;;;3.82;69.59
49541;BME280;35432;43.566;1.398;2023-02-17T05:28:13;101547.44;;;3.81;69.46
49541;BME280;35432;43.566;1.398;2023-02-17T05:30:38;101547.41;;;3.80;69.36
49541;BME280;35432;43.566;1.398;2023-02-17T05:33:04;101541.22;;;3.78;69.25
49541;BME280;35432;43.566;1.398;2023-02-17T05:35:29;101544.66;;;3.77;69.45
49541;BME280;35432;43.566;1.398;2023-02-17T05:37:55;101551.53;;;3.75;69.50
49541;BME280;35432;43.566;1.398;2023-02-17T05:40:20;101551.44;;;3.73;69.67
49541;BME280;35432;43.566;1.398;2023-02-17T05:42:45;101547.94;;;3.72;69.43
49541;BME280;35432;43.566;1.398;2023-02-17T05:45:11;101544.38;;;3.70;69.84
49541;BME280;35432;43.566;1.398;2023-02-17T05:47:36;101539.16;;;3.70;69.43
49541;BME280;35432;43.566;1.398;2023-02-17T05:50:03;101545.13;;;3.68;69.53
49541;BME280;35432;43.566;1.398;2023-02-17T05:52:28;101544.22;;;3.67;69.34
49541;BME280;35432;43.566;1.398;2023-02-17T05:54:54;101546.78;;;3.66;69.55
49541;BME280;35432;43.566;1.398;2023-02-17T05:57:19;101550.03;;;3.62;69.70
49541;BME280;35432;43.566;1.398;2023-02-17T05:59:45;101549.03;;;3.58;69.73
49541;BME280;35432;43.566;1.398;2023-02-17T06:02:10;101558.50;;;3.56;69.62
49541;BME280;35432;43.566;1.398;2023-02-17T06:04:35;101554.13;;;3.55;69.58
49541;BME280;35432;43.566;1.398;2023-02-17T06:07:01;101550.47;;;3.51;69.96
49541;BME280;35432;43.566;1.398;2023-02-17T06:09:26;101559.00;;;3.49;69.63
49541;BME280;35432;43.566;1.398;2023-02-17T06:11:52;101557.09;;;3.44;69.94
49541;BME280;35432;43.566;1.398;2023-02-17T06:14:17;101557.78;;;3.40;69.75
49541;BME280;35432;43.566;1.398;2023-02-17T06:16:43;101568.06;;;3.37;69.37
49541;BME280;35432;43.566;1.398;2023-02-17T06:19:08;101570.53;;;3.34;69.68
49541;BME280;35432;43.566;1.398;2023-02-17T06:21:34;101566.81;;;3.29;69.92
49541;BME280;35432;43.566;1.398;2023-02-17T06:23:59;101566.72;;;3.27;69.94
49541;BME280;35432;43.566;1.398;2023-02-17T06:26:24;101567.47;;;3.25;70.15
49541;BME280;35432;43.566;1.398;2023-02-17T06:28:50;101569.13;;;3.23;69.78
49541;BME280;35432;43.566;1.398;2023-02-17T06:31:15;101573.34;;;3.21;69.79
49541;BME280;35432;43.566;1.398;2023-02-17T06:33:41;101575.91;;;3.19;69.99
49541;BME280;35432;43.566;1.398;2023-02-17T06:36:07;101578.41;;;3.18;69.75
49541;BME280;35432;43.566;1.398;2023-02-17T06:38:32;101581.03;;;3.18;70.27
49541;BME280;35432;43.566;1.398;2023-02-17T06:40:58;101580.16;;;3.17;69.93
49541;BME280;35432;43.566;1.398;2023-02-17T06:43:23;101584.44;;;3.16;69.74
49541;BME280;35432;43.566;1.398;2023-02-17T06:45:48;101590.47;;;3.15;69.63
49541;BME280;35432;43.566;1.398;2023-02-17T06:48:14;101587.06;;;3.16;69.82
49541;BME280;35432;43.566;1.398;2023-02-17T06:50:39;101588.84;;;3.18;70.07
49541;BME280;35432;43.566;1.398;2023-02-17T06:53:05;101591.53;;;3.19;70.00
49541;BME280;35432;43.566;1.398;2023-02-17T06:55:30;101593.31;;;3.20;69.69
49541;BME280;35432;43.566;1.398;2023-02-17T06:57:56;101600.34;;;3.23;70.20
49541;BME280;35432;43.566;1.398;2023-02-17T07:00:21;101595.38;;;3.27;70.04
49541;BME280;35432;43.566;1.398;2023-02-17T07:02:47;101604.28;;;3.33;69.72
49541;BME280;35432;43.566;1.398;2023-02-17T07:05:12;101606.38;;;3.40;69.77
49541;BME280;35432;43.566;1.398;2023-02-17T07:07:38;101605.03;;;3.48;69.82
49541;BME280;35432;43.566;1.398;2023-02-17T07:10:04;101609.00;;;3.59;69.81
49541;BME280;35432;43.566;1.398;2023-02-17T07:12:29;101605.09;;;3.69;69.70
49541;BME280;35432;43.566;1.398;2023-02-17T07:14:55;101609.09;;;3.81;69.85
49541;BME280;35432;43.566;1.398;2023-02-17T07:17:21;101609.59;;;3.92;69.61
49541;BME280;35432;43.566;1.398;2023-02-17T07:19:46;101610.06;;;4.02;69.41
49541;BME280;35432;43.566;1.398;2023-02-17T07:22:11;101614.03;;;4.14;69.29
49541;BME280;35432;43.566;1.398;2023-02-17T07:24:37;101608.41;;;4.24;68.98
49541;BME280;35432;43.566;1.398;2023-02-17T07:27:04;101612.31;;;4.34;68.88
49541;BME280;35432;43.566;1.398;2023-02-17T07:29:30;101615.34;;;4.45;68.90
49541;BME280;35432;43.566;1.398;2023-02-17T07:31:55;101617.47;;;4.54;68.78
49541;BME280;35432;43.566;1.398;2023-02-17T07:34:21;101618.72;;;4.62;68.72
49541;BME280;35432;43.566;1.398;2023-02-17T07:36:46;101612.09;;;4.70;68.42
49541;BME280;35432;43.566;1.398;2023-02-17T07:39:12;101618.59;;;4.80;68.45
49541;BME280;35432;43.566;1.398;2023-02-17T07:41:37;101621.63;;;4.91;68.28
49541;BME280;35432;43.566;1.398;2023-02-17T07:44:03;101625.69;;;5.06;67.83
49541;BME280;35432;43.566;1.398;2023-02-17T07:46:28;101628.22;;;5.25;68.60
49541;BME280;35432;43.566;1.398;2023-02-17T07:48:56;101625.09;;;5.57;67.97
49541;BME280;35432;43.566;1.398;2023-02-17T07:51:22;101625.97;;;6.03;67.49
49541;BME280;35432;43.566;1.398;2023-02-17T07:53:49;101621.94;;;6.63;67.08
49541;BME280;35432;43.566;1.398;2023-02-17T07:56:17;101622.47;;;7.63;66.23
49541;BME280;35432;43.566;1.398;2023-02-17T07:58:43;101617.91;;;8.82;64.80
49541;BME280;35432;43.566;1.398;2023-02-17T08:01:18;101620.94;;;10.22;59.33
49541;BME280;35432;43.566;1.398;2023-02-17T08:03:45;101607.63;;;11.77;60.94
49541;BME280;35432;43.566;1.398;2023-02-17T08:06:19;101604.69;;;13.37;58.68
49541;BME280;35432;43.566;1.398;2023-02-17T08:08:45;101603.41;;;14.89;56.92
49541;BME280;35432;43.566;1.398;2023-02-17T08:11:34;101586.97;;;16.34;54.73
49541;BME280;35432;43.566;1.398;2023-02-17T08:14:23;101589.41;;;17.59;52.94
49541;BME280;35432;43.566;1.398;2023-02-17T08:16:49;101585.31;;;18.61;52.05
49541;BME280;35432;43.566;1.398;2023-02-17T08:19:14;101581.00;;;19.55;50.55
49541;BME280;35432;43.566;1.398;2023-02-17T08:21:40;101585.50;;;20.34;49.17
49541;BME280;35432;43.566;1.398;2023-02-17T08:24:05;101581.25;;;21.00;47.97
49541;BME280;35432;43.566;1.398;2023-02-17T08:26:31;101580.38;;;21.64;46.44
49541;BME280;35432;43.566;1.398;2023-02-17T08:28:56;101586.53;;;22.26;45.46
49541;BME280;35432;43.566;1.398;2023-02-17T08:31:23;101585.31;;;22.65;44.70
49541;BME280;35432;43.566;1.398;2023-02-17T08:33:50;101582.06;;;23.07;43.65
49541;BME280;35432;43.566;1.398;2023-02-17T08:36:16;101586.34;;;23.39;42.70
49541;BME280;35432;43.566;1.398;2023-02-17T08:38:42;101582.78;;;23.63;41.91
49541;BME280;35432;43.566;1.398;2023-02-17T08:41:32;101583.09;;;23.78;37.83
49541;BME280;35432;43.566;1.398;2023-02-17T08:44:00;101579.69;;;24.20;41.60
49541;BME280;35432;43.566;1.398;2023-02-17T08:46:26;101578.22;;;24.56;41.32
49541;BME280;35432;43.566;1.398;2023-02-17T08:48:53;101583.13;;;24.89;40.51
49541;BME280;35432;43.566;1.398;2023-02-17T08:51:22;101579.47;;;25.32;40.40
49541;BME280;35432;43.566;1.398;2023-02-17T08:53:53;101575.47;;;25.80;34.89
49541;BME280;35432;43.566;1.398;2023-02-17T08:56:21;101570.81;;;26.22;38.65
49541;BME280;35432;43.566;1.398;2023-02-17T08:58:46;101572.69;;;26.75;38.40
49541;BME280;35432;43.566;1.398;2023-02-17T09:01:12;101568.06;;;27.12;38.17
49541;BME280;35432;43.566;1.398;2023-02-17T09:03:38;101577.75;;;27.51;37.37
49541;BME280;35432;43.566;1.398;2023-02-17T09:06:04;101574.38;;;27.96;36.94
49541;BME280;35432;43.566;1.398;2023-02-17T09:08:30;101574.38;;;28.28;36.21
49541;BME280;35432;43.566;1.398;2023-02-17T09:10:56;101578.50;;;28.66;35.89
49541;BME280;35432;43.566;1.398;2023-02-17T09:13:21;101575.41;;;28.88;35.37
49541;BME280;35432;43.566;1.398;2023-02-17T09:15:47;101576.13;;;29.21;35.18
49541;BME280;35432;43.566;1.398;2023-02-17T09:18:13;101572.06;;;29.57;34.95
49541;BME280;35432;43.566;1.398;2023-02-17T09:20:39;101572.50;;;29.93;34.22
49541;BME280;35432;43.566;1.398;2023-02-17T09:23:05;101575.78;;;29.98;33.39
49541;BME280;35432;43.566;1.398;2023-02-17T09:25:31;101581.78;;;30.18;33.63
49541;BME280;35432;43.566;1.398;2023-02-17T09:27:56;101576.38;;;30.31;33.33
49541;BME280;35432;43.566;1.398;2023-02-17T09:30:22;101575.41;;;30.59;33.31
49541;BME280;35432;43.566;1.398;2023-02-17T09:32:47;101584.41;;;30.87;32.43
49541;BME280;35432;43.566;1.398;2023-02-17T09:35:15;101580.63;;;31.03;32.53
49541;BME280;35432;43.566;1.398;2023-02-17T09:37:41;101573.78;;;31.23;32.18
49541;BME280;35432;43.566;1.398;2023-02-17T09:40:08;101584.97;;;31.44;32.01
49541;BME280;35432;43.566;1.398;2023-02-17T09:42:38;101575.03;;;31.56;29.62
49541;BME280;35432;43.566;1.398;2023-02-17T09:45:09;101579.84;;;31.53;31.32
49541;BME280;35432;43.566;1.398;2023-02-17T09:48:06;101579.84;;;31.53;29.02
49541;BME280;35432;43.566;1.398;2023-02-17T09:50:44;101585.69;;;31.85;30.27
49541;BME280;35432;43.566;1.398;2023-02-17T09:55:51;101592.75;;;32.25;30.40
49541;BME280;35432;43.566;1.398;2023-02-17T10:00:55;101596.28;;;32.63;30.44
49541;BME280;35432;43.566;1.398;2023-02-17T10:03:29;101586.44;;;32.85;28.26
49541;BME280;35432;43.566;1.398;2023-02-17T10:08:39;101591.84;;;33.32;27.27
49541;BME280;35432;43.566;1.398;2023-02-17T10:11:18;101591.13;;;33.41;26.37
49541;BME280;35432;43.566;1.398;2023-02-17T10:13:45;101595.81;;;33.39;29.38
49541;BME280;35432;43.566;1.398;2023-02-17T10:16:19;101591.53;;;33.48;27.41
49541;BME280;35432;43.566;1.398;2023-02-17T10:18:52;101588.69;;;33.49;27.40
49541;BME280;35432;43.566;1.398;2023-02-17T10:21:26;101591.91;;;33.66;28.69
49541;BME280;35432;43.566;1.398;2023-02-17T10:23:53;101598.81;;;33.82;28.73
49541;BME280;35432;43.566;1.398;2023-02-17T10:32:25;101581.91;;;33.88;28.22
49541;BME280;35432;43.566;1.398;2023-02-17T10:35:16;101585.91;;;33.95;28.28
49541;BME280;35432;43.566;1.398;2023-02-17T10:37:46;101592.19;;;34.18;26.52
49541;BME280;35432;43.566;1.398;2023-02-17T10:40:19;101601.94;;;34.32;27.62
49541;BME280;35432;43.566;1.398;2023-02-17T10:42:46;101595.84;;;34.40;27.62
49541;BME280;35432;43.566;1.398;2023-02-17T10:45:32;101597.91;;;34.48;26.72
49541;BME280;35432;43.566;1.398;2023-02-17T10:48:07;101584.22;;;34.59;25.02
49541;BME280;35432;43.566;1.398;2023-02-17T10:50:35;101579.34;;;34.84;27.57
49541;BME280;35432;43.566;1.398;2023-02-17T10:53:20;101576.03;;;34.81;26.71
49541;BME280;35432;43.566;1.398;2023-02-17T10:58:18;101572.31;;;35.03;27.11
49541;BME280;35432;43.566;1.398;2023-02-17T11:00:51;101580.72;;;35.11;26.98
49541;BME280;35432;43.566;1.398;2023-02-17T11:03:25;101573.22;;;35.13;26.24
49541;BME280;35432;43.566;1.398;2023-02-17T11:06:00;101583.19;;;35.14;26.40
49541;BME280;35432;43.566;1.398;2023-02-17T11:08:43;101576.53;;;35.17;25.26
49541;BME280;35432;43.566;1.398;2023-02-17T11:11:27;101575.63;;;34.85;26.64
49541;BME280;35432;43.566;1.398;2023-02-17T11:16:39;101565.16;;;34.37;26.09
49541;BME280;35432;43.566;1.398;2023-02-17T11:19:06;101574.94;;;34.06;28.13
49541;BME280;35432;43.566;1.398;2023-02-17T11:21:45;101572.16;;;33.62;28.65
49541;BME280;35432;43.566;1.398;2023-02-17T11:24:11;101572.47;;;33.01;29.25
49541;BME280;35432;43.566;1.398;2023-02-17T11:26:37;101562.59;;;32.40;30.50
49541;BME280;35432;43.566;1.398;2023-02-17T11:29:14;101564.72;;;31.48;29.60
49541;BME280;35432;43.566;1.398;2023-02-17T11:31:39;101565.69;;;30.96;32.88
49541;BME280;35432;43.566;1.398;2023-02-17T11:34:21;101566.63;;;30.28;32.49
49541;BME280;35432;43.566;1.398;2023-02-17T11:39:27;101568.97;;;29.20;35.23
49541;BME280;35432;43.566;1.398;2023-02-17T11:41:53;101565.81;;;28.67;35.85
49541;BME280;35432;43.566;1.398;2023-02-17T11:44:26;101555.78;;;28.22;35.02
49541;BME280;35432;43.566;1.398;2023-02-17T11:47:11;101553.69;;;27.63;35.14
49541;BME280;35432;43.566;1.398;2023-02-17T11:49:53;101557.41;;;27.27;37.43
49541;BME280;35432;43.566;1.398;2023-02-17T11:55:12;101551.22;;;26.36;38.12
49541;BME280;35432;43.566;1.398;2023-02-17T12:00:46;101555.81;;;25.39;38.67
49541;BME280;35432;43.566;1.398;2023-02-17T12:03:42;101543.13;;;25.01;39.94
49541;BME280;35432;43.566;1.398;2023-02-17T12:12:40;101534.78;;;24.21;41.73
49541;BME280;35432;43.566;1.398;2023-02-17T12:15:11;101527.94;;;23.90;40.73
49541;BME280;35432;43.566;1.398;2023-02-17T12:17:55;101525.03;;;23.72;44.09
49541;BME280;35432;43.566;1.398;2023-02-17T12:25:58;101515.28;;;23.22;43.49
49541;BME280;35432;43.566;1.398;2023-02-17T12:34:33;101510.59;;;22.51;43.83
49541;BME280;35432;43.566;1.398;2023-02-17T12:37:03;101502.84;;;22.42;46.36
49541;BME280;35432;43.566;1.398;2023-02-17T12:39:53;101486.84;;;22.12;43.41
49541;BME280;35432;43.566;1.398;2023-02-17T12:42:22;101493.44;;;22.01;47.01
49541;BME280;35432;43.566;1.398;2023-02-17T12:44:58;101495.69;;;21.87;45.32
49541;BME280;35432;43.566;1.398;2023-02-17T12:52:59;101477.91;;;21.54;47.57
49541;BME280;35432;43.566;1.398;2023-02-17T12:55:31;101476.34;;;21.47;46.38
49541;BME280;35432;43.566;1.398;2023-02-17T12:58:06;101481.75;;;21.45;47.66
49541;BME280;35432;43.566;1.398;2023-02-17T13:03:01;101485.16;;;21.20;48.50
49541;BME280;35432;43.566;1.398;2023-02-17T13:05:41;101483.72;;;21.07;47.49
49541;BME280;35432;43.566;1.398;2023-02-17T13:08:10;101480.28;;;21.03;49.57
49541;BME280;35432;43.566;1.398;2023-02-17T13:10:40;101477.84;;;20.94;49.55
49541;BME280;35432;43.566;1.398;2023-02-17T13:13:09;101471.72;;;20.90;49.04
49541;BME280;35432;43.566;1.398;2023-02-17T13:15:39;101468.97;;;20.92;49.91
49541;BME280;35432;43.566;1.398;2023-02-17T13:18:28;101462.03;;;20.86;45.74
49541;BME280;35432;43.566;1.398;2023-02-17T13:20:57;101458.25;;;20.93;50.39
49541;BME280;35432;43.566;1.398;2023-02-17T13:23:32;101456.44;;;20.94;48.05
49541;BME280;35432;43.566;1.398;2023-02-17T13:26:27;101447.53;;;20.93;47.86
49541;BME280;35432;43.566;1.398;2023-02-17T13:29:05;101447.22;;;21.04;50.90
49541;BME280;35432;43.566;1.398;2023-02-17T13:31:44;101442.00;;;21.00;47.68
49541;BME280;35432;43.566;1.398;2023-02-17T13:34:10;101438.47;;;20.98;51.00
49541;BME280;35432;43.566;1.398;2023-02-17T13:36:47;101440.44;;;20.91;50.64
49541;BME280;35432;43.566;1.398;2023-02-17T13:41:52;101432.03;;;20.72;51.11
49541;BME280;35432;43.566;1.398;2023-02-17T13:44:39;101424.19;;;20.65;48.41
49541;BME280;35432;43.566;1.398;2023-02-17T13:47:15;101420.50;;;20.70;50.02
49541;BME280;35432;43.566;1.398;2023-02-17T13:49:53;101418.66;;;20.72;49.44
49541;BME280;35432;43.566;1.398;2023-02-17T13:52:25;101422.25;;;20.71;49.26
49541;BME280;35432;43.566;1.398;2023-02-17T13:54:54;101410.75;;;20.67;51.97
49541;BME280;35432;43.566;1.398;2023-02-17T13:57:29;101417.31;;;20.55;45.69
49541;BME280;35432;43.566;1.398;2023-02-17T14:00:21;101420.28;;;20.44;48.99
49541;BME280;35432;43.566;1.398;2023-02-17T14:05:45;101408.25;;;20.28;50.02
49541;BME280;35432;43.566;1.398;2023-02-17T14:08:18;101410.22;;;20.21;49.69
49541;BME280;35432;43.566;1.398;2023-02-17T14:10:45;101407.53;;;20.21;52.55
49541;BME280;35432;43.566;1.398;2023-02-17T14:13:11;101406.81;;;20.14;51.91
49541;BME280;35432;43.566;1.398;2023-02-17T14:15:48;101396.34;;;20.05;49.95
49541;BME280;35432;43.566;1.398;2023-02-17T14:18:15;101396.22;;;20.10;52.70
49541;BME280;35432;43.566;1.398;2023-02-17T14:20:59;101400.81;;;20.04;49.16
49541;BME280;35432;43.566;1.398;2023-02-17T14:23:24;101401.06;;;19.95;52.39
49541;BME280;35432;43.566;1.398;2023-02-17T14:25:50;101396.66;;;19.92;52.80
49541;BME280;35432;43.566;1.398;2023-02-17T14:28:26;101395.88;;;19.86;48.12